Surface weather observations from New York State from the past hour:

KALB 191551Z 17005KT 10SM FEW200 SCT250 M02/M08 A3013 RMK AO2 SLP209 T10171083=
KART 191556Z AUTO 21010G18KT 10SM CLR 01/M05 A3003 RMK AO2 SLP176 T00111050=
KBGM 191553Z 23005KT 10SM CLR M02/M07 A3004 RMK AO2 SLP197 T10171067=
KBUF 191554Z 23014G20KT 10SM FEW130 FEW200 BKN250 03/M05 A3004 RMK AO2 SLP180
 T00281050=
KDKK 191553Z AUTO 20011KT 10SM CLR 03/M04 A3005 RMK AO2 SLP184 T00331044 $=
KDSV 191554Z AUTO 14007KT 10SM CLR 03/M06 A3005 RMK AO2 SLP192 T00331056=
KELM 191553Z 00000KT 10SM CLR M03/M06 A3008 RMK AO2 SLP199 T10281061=
KELZ 191556Z AUTO 02/M07 A3003 RMK AO2 SLP195 T00221067 PWINO FZRANO $=
KFOK 191553Z 32007KT 10SM CLR 02/M09 A3016 RMK AO2 SLP215 T00221089 $=
KFRG 191553Z 28004KT 10SM CLR 01/M08 A3017 RMK AO2 SLP217 T00061083=
KFZY 191554Z AUTO 17007KT 10SM CLR 00/M07 A3007 RMK AO2 SLP187 T00001067=
KGFL 191553Z AUTO VRB05KT 10SM CLR M04/M08 A3010 RMK AO2 SLP205 T10391083=
KGTB 191556Z AUTO 13007KT 10SM CLR M03/M08 A3001 RMK AO2 SLP175 T10311076=
KHPN 191556Z 32004KT 10SM CLR 00/M09 A3013 RMK AO2 SLP214 T00001089=
KHTO 191555Z AUTO 32005KT 10SM CLR 00/M07 A3014 RMK AO2 T00041071=
KHWV 191556Z AUTO 29005KT 10SM CLR 01/M09 A3017 RMK AO2 SLP216 T00111094=
KIAG 191553Z 21010KT 10SM CLR 03/M02 A3002 RMK AO2 SLP182 T00281017=
KISP 191556Z 27005KT 10SM FEW250 01/M08 A3016 RMK AO2 SLP213 T00111083=
KITH 191556Z 13004KT 10SM CLR 00/M04 A3006 RMK AO2 SLP197 T00001044=
KJFK 191551Z 22007KT 10SM FEW250 02/M06 A3019 RMK AO2 SLP224 T00171061=
KJHW 191556Z AUTO 19004KT 10SM FEW110 M01/M04 A3003 RMK AO2 SLP199 T10061044
 FZRANO=
KLGA 191551Z 31005KT 10SM FEW250 01/M08 A3018 RMK AO2 SLP218 T00111083=
KMGJ 191554Z AUTO 08003KT 10SM CLR M01/M07 A3012 RMK AO2 SLP205 T10061072=
KMSS 191553Z AUTO 22007KT 10SM OVC022 M02/M04 A3003 RMK AO2 SLP178 T10171044=
KMSV 191556Z AUTO 27005KT 10SM CLR 02/M07 A3009 RMK AO2 SLP209 T00171067 FZRANO=
KMTP 191554Z AUTO 28008KT 01/M06 A3014 RMK AO1 SLP207 T00061056
KNYC 191551Z AUTO 10SM CLR 01/M08 A3019 RMK AO2 SLP216 T00061083 $=
KOLE 191555Z AUTO 24004KT 10SM CLR 00/M06 A3001 RMK AO2=
KPBG 191553Z AUTO 17005KT 10SM CLR M04/M12 A3006 RMK AO2 SLP183 T10441117=
KPEO 191553Z AUTO 20008KT 10SM CLR 02/M06 A3005 RMK AO2 SLP188 T00171056=
KPOU 191553Z 00000KT 10SM CLR M02/M09 A3015 RMK AO2 SLP208 T10221089=
KRME 191553Z 11005KT 10SM CLR M03/M07 A3011 RMK AO2 SLP202 T10281067=
KROC 191554Z 21009KT 10SM FEW150 BKN230 03/M04 A3004 RMK AO2 SLP184 T00281044=
KSLK 191551Z AUTO 24005KT 10SM BKN011 M06/M08 A2996 RMK AO2 SLP177 T10611083=
KSWF 191545Z 00000KT 20SM SKC M02/M06 A3014=
KSYR 191554Z 10005KT 10SM FEW180 BKN220 BKN250 M01/M06 A3008 RMK AO2 SLP186
 T10061061=

Return to: Albany Weather Page

Return to: Department of Atmospheric and Environmental Sciences Homepage


Comments to daesweb@albany.edu